• Join FlightAware (Why Join?)
  • Login
  • US Flag 
 
06:25AM EST


 

Airport Tracker/Info


-or-


 

Live Flight TrackerFlight Track Log ✈ SKW5467 ✈ 21-Jul-2013 ✈ KONT - KSFO

Flight Track Log - Related Links

Times and Time Zones

All times are in EDT time to prevent confusion due to time zone crossing. See the SKW5467 flight status page for this flight to view local times or setup timezone preferences in your user account.

Time Position Orientation Groundspeed Altitude Reporting Facility
EDT Latitude Longitude Course Direction KTS MPH feet Rate Location/Type
08:33AM 34.0406 -117.5664 267° West 171 197 2,700  Level Los Angeles Center
08:34AM 34.0378 -117.6328 267° West 294 338 4,200 1,860 Climbing Los Angeles Center
08:35AM 34.0811 -117.7078 305° West 279 321 6,500 2,160 Climbing Los Angeles Center
08:36AM 34.1247 -117.7894 303° West 287 330 8,600 2,100 Climbing Los Angeles Center
08:37AM 34.1689 -117.8739 302° West 297 342 10,700 1,680 Climbing Los Angeles Center
08:38AM 34.2172 -117.9606 304° West 311 358 12,100 1,380 Climbing Los Angeles Center
08:39AM 34.2686 -118.0561 303° West 335 386 13,600 1,380 Climbing Los Angeles Center
08:40AM 34.3256 -118.1492 307° West 346 398 14,900 1,320 Climbing Los Angeles Center
08:41AM 34.3883 -118.2428 309° West 359 413 16,300 1,260 Climbing Los Angeles Center
08:42AM 34.4525 -118.3386 309° West 367 422 17,500 1,080 Climbing Los Angeles Center
08:43AM 34.5181 -118.4347 310° West 371 427 18,500 900 Climbing Los Angeles Center
08:44AM 34.5864 -118.5325 310° West 378 435 19,400 900 Climbing Los Angeles Center
08:45AM 34.6544 -118.6381 308° West 398 458 20,300 840 Climbing Los Angeles Center
08:46AM 34.7231 -118.7411 309° West 395 455 21,200 840 Climbing Los Angeles Center
08:47AM 34.7925 -118.8442 309° West 394 453 22,100 900 Climbing Los Angeles Center
08:48AM 34.8789 -118.9244 323° Northwest 394 453 23,000 840 Climbing Los Angeles Center
08:49AM 34.9656 -118.9917 328° Northwest 388 447 23,900 480 Climbing Los Angeles Center
08:50AM 35.0547 -119.0642 326° Northwest 387 445 24,000  Climbing Los Angeles Center
08:51AM 35.1456 -119.1400 326° Northwest 394 453 24,000  Level Los Angeles Center
08:52AM 35.2164 -119.2508 308° West 418 481 24,000  Level Los Angeles Center
08:53AM 35.2803 -119.4056 297° West 424 488 24,000  Level Los Angeles Center
08:54AM 35.3367 -119.5381 298° West 435 501 24,000  Level Los Angeles Center
08:55AM 35.3928 -119.6728 297° West 442 509 24,000  Level Los Angeles Center
08:56AM 35.4494 -119.8089 297° West 447 514 24,000  Level Los Angeles Center
08:57AM 35.5047 -119.9425 297° West 442 509 24,000  Level Los Angeles Center
08:58AM 35.5603 -120.0789 297° West 450 518 24,000  Level Los Angeles Center
08:59AM 35.6175 -120.2217 296° West 452 520 24,000  Level Los Angeles Center
09:00AM 35.6706 -120.3508 297° West 451 519 24,000  Level Los Angeles Center
09:01AM 35.7250 -120.4872 296° West 450 518 24,000  Level Los Angeles Center
09:02AM 35.7794 -120.6239 296° West 450 518 24,000  Level Los Angeles Center
09:03AM 35.8375 -120.7603 298° West 452 520 24,000  Level Los Angeles Center
09:04AM 35.9242 -120.8683 315° West 443 510 24,000  Level Los Angeles Center
09:05AM 36.0094 -120.9806 313° West 447 514 24,000  Level Los Angeles Center
09:07AM 36.1272 -121.1369 313° West 446 513 24,000  Level Oakland Center
09:08AM 36.2128 -121.2483 314° West 446 513 24,000  Level Oakland Center
09:09AM 36.2975 -121.3622 313° West 449 517 24,000  Level Oakland Center
09:10AM 36.3828 -121.4731 314° West 446 513 24,000 -300 Level Oakland Center
09:11AM 36.4669 -121.5892 312° West 452 520 23,400 -840 Descending Oakland Center
09:12AM 36.5519 -121.7089 311° West 461 531 22,400 -1,080 Descending Oakland Center
09:13AM 36.6514 -121.8414 313° West 463 533 21,300 -1,200 Descending Oakland Center
09:14AM 36.7375 -121.9536 314° West 451 519 20,000 -660 Descending Oakland Center
09:15AM 36.8503 -121.9900 346° North 424 488 20,000 -1,440 Level Oakland Center
09:16AM 36.9600 -122.0203 348° North 402 463 17,100 -3,240 Descending Oakland Center
09:17AM 37.0344 -122.1225 312° West 407 468 13,600 -3,240 Descending Oakland Center
09:18AM 37.1217 -122.1922 327° Northwest 384 442 10,600 -2,160 Descending Oakland Center
09:19AM 37.2139 -122.2253 344° North 344 396 9,300 -960 Descending Oakland Center
09:20AM 37.2875 -122.2547 342° North 283 326 8,700 -1,200 Descending Oakland Center
09:21AM 37.3547 -122.2769 345° North 251 289 7,000 -1,800 Descending Oakland Center
09:22AM 37.4167 -122.2500 19° North 241 277 5,300 -1,680 Descending Northern Cal TRACON
09:23AM 37.4500 -122.1833 58° Northeast 232 267 4,000 -1,380 Descending Northern Cal TRACON
09:24AM 37.5000 -122.1500 28° Northeast 227 261 2,600 -780 Descending Northern Cal TRACON
09:25AM 37.5333 -122.1833 322° Northwest 201 231 2,500 -480 Descending Northern Cal TRACON
09:26AM 37.5667 -122.2333 310° West 183 211 1,800 -780 Descending Northern Cal TRACON